createdAt,value
2022-09-24T00:00:16.826Z,11.73
2022-09-24T00:01:21.330Z,10.70
2022-09-24T00:02:22.989Z,8.98
2022-09-24T00:03:28.139Z,11.73
2022-09-24T00:04:31.343Z,10.50
2022-09-24T00:05:37.089Z,7.88
2022-09-24T00:06:41.881Z,8.75
2022-09-24T00:07:43.406Z,9.88
2022-09-24T00:08:50.147Z,9.93
2022-09-24T00:09:53.049Z,8.63
2022-09-24T00:10:57.037Z,10.02
2022-09-24T00:12:00.953Z,9.20
2022-09-24T00:13:02.473Z,8.50
2022-09-24T00:14:06.868Z,9.35
2022-09-24T00:15:09.343Z,8.48
2022-09-24T00:16:14.760Z,8.57
2022-09-24T00:17:16.601Z,11.68
2022-09-24T00:18:21.842Z,12.38
2022-09-24T00:19:23.378Z,8.75
2022-09-24T00:20:26.106Z,8.80
2022-09-24T00:21:29.866Z,10.10
2022-09-24T00:22:33.492Z,10.57
2022-09-24T00:23:35.020Z,9.25
2022-09-24T00:24:55.127Z,10.00
2022-09-24T00:26:15.823Z,13.02
2022-09-24T00:27:18.300Z,11.85
2022-09-24T00:28:19.852Z,8.50
2022-09-24T00:29:24.830Z,10.45
2022-09-24T00:30:26.361Z,13.00
2022-09-24T00:31:28.939Z,10.93
2022-09-24T00:32:30.468Z,9.02
2022-09-24T00:33:34.284Z,9.85
2022-09-24T00:34:35.844Z,10.38
2022-09-24T00:35:39.961Z,11.85
2022-09-24T00:36:41.522Z,9.75
2022-09-24T00:37:44.500Z,12.02
2022-09-24T00:38:49.330Z,10.07
2022-09-24T00:39:51.822Z,8.55
2022-09-24T00:40:53.940Z,10.55
2022-09-24T00:41:57.868Z,11.23
2022-09-24T00:42:59.728Z,12.40
2022-09-24T00:44:03.431Z,9.80
2022-09-24T00:45:05.711Z,10.20
2022-09-24T00:46:12.869Z,7.97
2022-09-24T00:47:19.274Z,9.98
2022-09-24T00:48:21.831Z,9.68
2022-09-24T00:49:24.214Z,11.27
2022-09-24T00:50:31.237Z,9.02
2022-09-24T00:51:33.144Z,10.00
2022-09-24T00:52:36.863Z,9.45
2022-09-24T00:53:39.454Z,12.95
2022-09-24T00:54:43.074Z,23.60
2022-09-24T00:55:47.385Z,8.77
2022-09-24T00:56:50.281Z,11.15
2022-09-24T00:57:57.363Z,12.13
2022-09-24T00:59:02.355Z,7.82
2022-09-24T01:00:06.981Z,9.68
2022-09-24T01:01:08.820Z,9.23
2022-09-24T01:02:12.639Z,12.32
2022-09-24T01:03:17.637Z,11.55
2022-09-24T01:04:21.455Z,11.10
2022-09-24T01:05:23.031Z,8.85
2022-09-24T01:06:26.186Z,9.88
2022-09-24T01:07:27.729Z,10.25
2022-09-24T01:08:30.227Z,12.18
2022-09-24T01:09:31.778Z,11.13
2022-09-24T01:10:51.635Z,8.55
2022-09-24T01:12:01.336Z,10.13
2022-09-24T01:13:14.845Z,10.52
2022-09-24T01:14:37.745Z,8.57
2022-09-24T01:15:43.491Z,11.10
2022-09-24T01:16:49.674Z,13.73
2022-09-24T01:17:57.763Z,9.40
2022-09-24T01:19:05.767Z,9.45
2022-09-24T01:20:38.010Z,8.82
2022-09-24T01:21:42.844Z,9.35
2022-09-24T01:23:04.289Z,11.13
2022-09-24T01:24:26.044Z,11.00
2022-09-24T01:25:33.570Z,11.00
2022-09-24T01:26:47.961Z,9.40
2022-09-24T01:28:04.772Z,10.48
2022-09-24T01:29:24.624Z,12.55
2022-09-24T01:30:32.158Z,10.40
2022-09-24T01:31:36.414Z,10.52
2022-09-24T01:32:42.221Z,11.25
2022-09-24T01:33:46.098Z,12.68
2022-09-24T01:34:50.864Z,9.77
2022-09-24T01:35:55.212Z,11.80
2022-09-24T01:36:58.837Z,11.48
2022-09-24T01:38:02.530Z,11.50
2022-09-24T01:39:06.421Z,12.82
2022-09-24T01:40:11.303Z,12.73
2022-09-24T01:41:16.021Z,11.07
2022-09-24T01:42:18.193Z,14.48
2022-09-24T01:43:24.387Z,9.93
2022-09-24T01:44:27.390Z,11.68
2022-09-24T01:45:32.058Z,11.75
2022-09-24T01:46:33.821Z,10.15
2022-09-24T01:47:39.814Z,13.23
2022-09-24T01:48:41.607Z,14.50
2022-09-24T01:49:44.233Z,15.25
2022-09-24T01:50:53.416Z,11.88
2022-09-24T01:52:01.061Z,13.85
2022-09-24T01:53:07.087Z,14.77
2022-09-24T01:54:12.280Z,13.82
2022-09-24T01:55:17.195Z,11.25
2022-09-24T01:56:22.487Z,19.45
2022-09-24T01:57:26.936Z,14.65
2022-09-24T01:58:33.725Z,15.05
2022-09-24T01:59:40.834Z,16.45
2022-09-24T02:00:45.317Z,17.30
2022-09-24T02:01:50.263Z,23.13
2022-09-24T02:02:56.512Z,15.70
2022-09-24T02:04:00.387Z,15.77
2022-09-24T02:05:07.556Z,16.98
2022-09-24T02:06:12.620Z,19.23
2022-09-24T02:07:19.187Z,15.55
2022-09-24T02:08:22.894Z,18.45
2022-09-24T02:09:32.942Z,18.77
2022-09-24T02:10:38.502Z,16.73
2022-09-24T02:11:41.706Z,15.93
2022-09-24T02:12:45.737Z,16.38
2022-09-24T02:13:51.600Z,16.52
2022-09-24T02:14:58.601Z,15.73
2022-09-24T02:16:03.507Z,16.80
2022-09-24T02:17:06.952Z,15.45
2022-09-24T02:18:11.255Z,16.92
2022-09-24T02:19:15.272Z,16.85
2022-09-24T02:20:20.401Z,17.27
2022-09-24T02:21:24.019Z,21.38
2022-09-24T02:22:27.055Z,20.10
2022-09-24T02:23:29.345Z,16.38
2022-09-24T02:24:35.871Z,17.23
2022-09-24T02:25:40.652Z,16.33
2022-09-24T02:26:43.587Z,17.35
2022-09-24T02:27:45.188Z,18.48
2022-09-24T02:28:47.695Z,18.73
2022-09-24T02:29:49.240Z,14.75
2022-09-24T02:30:55.262Z,17.27
2022-09-24T02:31:58.078Z,17.38
2022-09-24T02:33:00.948Z,16.83
2022-09-24T02:34:20.728Z,16.67
2022-09-24T02:35:22.619Z,16.30
2022-09-24T02:36:25.264Z,17.23
2022-09-24T02:37:26.816Z,19.83
2022-09-24T02:38:29.328Z,16.65
2022-09-24T02:39:30.846Z,14.65
2022-09-24T02:40:34.193Z,16.35
2022-09-24T02:41:35.935Z,16.00
2022-09-24T02:42:41.027Z,21.55
2022-09-24T02:43:42.588Z,21.65
2022-09-24T02:44:45.123Z,17.42
2022-09-24T02:45:46.630Z,17.88
2022-09-24T02:46:50.805Z,18.35
2022-09-24T02:47:52.669Z,18.20
2022-09-24T02:48:55.184Z,17.15
2022-09-24T02:49:56.697Z,20.10
2022-09-24T02:50:59.600Z,18.38
2022-09-24T02:52:01.746Z,21.70
2022-09-24T02:53:04.295Z,22.77
2022-09-24T02:54:06.471Z,23.80
2022-09-24T02:55:09.281Z,20.17
2022-09-24T02:56:13.715Z,20.83
2022-09-24T02:57:16.252Z,21.85
2022-09-24T02:58:17.776Z,19.85
2022-09-24T02:59:20.291Z,20.52
2022-09-24T03:00:21.833Z,21.25
2022-09-24T03:01:24.737Z,23.38
2022-09-24T03:02:27.765Z,20.63
2022-09-24T03:03:30.353Z,19.13
2022-09-24T03:04:31.927Z,20.05
2022-09-24T03:05:34.867Z,20.88
2022-09-24T03:06:36.954Z,21.55
2022-09-24T03:07:39.429Z,20.52
2022-09-24T03:08:42.290Z,20.88
2022-09-24T03:09:44.764Z,23.48
2022-09-24T03:10:46.670Z,22.38
2022-09-24T03:11:50.086Z,19.30
2022-09-24T03:12:51.613Z,20.80
2022-09-24T03:13:54.118Z,19.45
2022-09-24T03:14:55.642Z,20.58
2022-09-24T03:15:58.175Z,19.88
2022-09-24T03:17:00.077Z,20.33
2022-09-24T03:18:04.137Z,20.70
2022-09-24T03:19:06.223Z,19.17
2022-09-24T03:20:09.268Z,19.05
2022-09-24T03:21:12.450Z,19.65
2022-09-24T03:22:14.947Z,19.42
2022-09-24T03:23:16.502Z,22.00
2022-09-24T03:24:19.027Z,20.10
2022-09-24T03:25:21.086Z,21.30
2022-09-24T03:26:23.630Z,20.60
2022-09-24T03:27:25.230Z,19.48
2022-09-24T03:28:28.024Z,21.38
2022-09-24T03:29:48.095Z,20.73
2022-09-24T03:31:01.979Z,21.63
2022-09-24T03:32:04.635Z,21.83
2022-09-24T03:33:07.660Z,23.33
2022-09-24T03:34:10.461Z,22.92
2022-09-24T03:35:12.056Z,24.90
2022-09-24T03:36:17.200Z,22.23
2022-09-24T03:37:18.716Z,20.42
2022-09-24T03:38:21.235Z,21.90
2022-09-24T03:39:22.771Z,20.25
2022-09-24T03:40:25.484Z,21.45
2022-09-24T03:41:28.841Z,20.33
2022-09-24T03:42:30.833Z,20.58
2022-09-24T03:43:33.529Z,21.17
2022-09-24T03:44:35.069Z,21.27
2022-09-24T03:45:38.565Z,24.10
2022-09-24T03:46:41.143Z,22.40
2022-09-24T03:47:42.768Z,21.17
2022-09-24T03:48:47.222Z,22.05
2022-09-24T03:49:48.831Z,22.55
2022-09-24T03:50:51.898Z,20.63
2022-09-24T03:51:54.466Z,24.60
2022-09-24T03:52:56.038Z,20.67
2022-09-24T03:53:58.521Z,24.63
2022-09-24T03:55:00.078Z,25.60
2022-09-24T03:56:03.243Z,23.83
2022-09-24T03:57:04.749Z,26.85
2022-09-24T03:58:07.234Z,22.58
2022-09-24T03:59:10.355Z,23.88
2022-09-24T04:00:13.443Z,20.52
2022-09-24T04:01:21.107Z,23.80
2022-09-24T04:02:23.060Z,23.15
2022-09-24T04:03:26.072Z,25.23
2022-09-24T04:04:29.013Z,22.90
2022-09-24T04:05:31.501Z,28.83
2022-09-24T04:06:33.072Z,26.45
2022-09-24T04:07:35.568Z,25.13
2022-09-24T04:08:37.076Z,25.92
2022-09-24T04:09:39.694Z,25.35
2022-09-24T04:10:41.195Z,25.75
2022-09-24T04:11:44.722Z,27.23
2022-09-24T04:12:46.264Z,25.85
2022-09-24T04:13:48.759Z,24.80
2022-09-24T04:14:50.297Z,26.27
2022-09-24T04:15:53.565Z,29.95
2022-09-24T04:16:55.208Z,24.65
2022-09-24T04:17:59.441Z,25.73
2022-09-24T04:19:01.908Z,25.10
2022-09-24T04:20:06.639Z,26.48
2022-09-24T04:21:08.169Z,25.33
2022-09-24T04:22:11.018Z,26.67
2022-09-24T04:23:12.913Z,25.70
2022-09-24T04:24:15.458Z,23.77
2022-09-24T04:25:17.640Z,28.73
2022-09-24T04:26:21.060Z,24.40
2022-09-24T04:27:22.583Z,29.52
2022-09-24T04:28:25.189Z,28.17
2022-09-24T04:29:26.688Z,28.55
2022-09-24T04:30:30.305Z,23.80
2022-09-24T04:31:32.796Z,29.23
2022-09-24T04:32:35.432Z,26.40
2022-09-24T04:33:36.963Z,25.00
2022-09-24T04:34:39.458Z,29.52
2022-09-24T04:35:42.618Z,26.92
2022-09-24T04:36:45.164Z,25.17
2022-09-24T04:37:47.019Z,26.73
2022-09-24T04:38:50.198Z,29.55
2022-09-24T04:39:51.744Z,28.70
2022-09-24T04:40:54.330Z,26.40
2022-09-24T04:41:55.918Z,25.60
2022-09-24T04:42:58.424Z,26.00
2022-09-24T04:43:59.961Z,25.50
2022-09-24T04:45:02.985Z,29.02
2022-09-24T04:46:05.627Z,30.70
2022-09-24T04:47:08.726Z,26.20
2022-09-24T04:48:11.052Z,26.55
2022-09-24T04:49:14.123Z,24.38
2022-09-24T04:50:15.712Z,31.88
2022-09-24T04:51:27.302Z,27.67
2022-09-24T04:52:31.370Z,27.08
2022-09-24T04:53:33.933Z,25.23
2022-09-24T04:54:35.484Z,26.08
2022-09-24T04:55:38.068Z,26.55
2022-09-24T04:56:39.633Z,28.08
2022-09-24T04:57:42.154Z,25.98
2022-09-24T04:58:44.561Z,24.48
2022-09-24T04:59:47.070Z,30.23
2022-09-24T05:00:51.139Z,26.60
2022-09-24T05:01:54.397Z,29.02
2022-09-24T05:02:58.974Z,25.25
2022-09-24T05:04:01.883Z,28.70
2022-09-24T05:05:03.628Z,25.23
2022-09-24T05:06:06.483Z,26.38
2022-09-24T05:07:09.982Z,27.85
2022-09-24T05:08:13.037Z,27.17
2022-09-24T05:09:14.819Z,28.85
2022-09-24T05:10:17.554Z,28.10
2022-09-24T05:11:19.886Z,28.70
2022-09-24T05:12:22.489Z,29.27
2022-09-24T05:13:24.088Z,32.33
2022-09-24T05:14:26.959Z,32.38
2022-09-24T05:15:29.456Z,29.95
2022-09-24T05:16:31.602Z,35.60
2022-09-24T05:17:34.125Z,29.67
2022-09-24T05:18:37.007Z,31.35
2022-09-24T05:19:39.513Z,34.20
2022-09-24T05:20:41.046Z,28.33
2022-09-24T05:21:43.584Z,30.92
2022-09-24T05:22:49.173Z,29.38
2022-09-24T05:23:50.706Z,38.10
2022-09-24T05:24:53.174Z,27.80
2022-09-24T05:26:13.148Z,30.52
2022-09-24T05:27:14.653Z,30.08
2022-09-24T05:28:17.174Z,29.48
2022-09-24T05:29:18.743Z,29.83
2022-09-24T05:30:23.010Z,30.98
2022-09-24T05:31:24.670Z,30.05
2022-09-24T05:32:27.253Z,27.48
2022-09-24T05:33:28.815Z,29.70
2022-09-24T05:34:31.359Z,30.35
2022-09-24T05:35:32.937Z,26.95
2022-09-24T05:36:35.570Z,28.58
2022-09-24T05:37:38.942Z,29.33
2022-09-24T05:38:42.757Z,28.60
2022-09-24T05:39:45.265Z,28.63
2022-09-24T05:40:50.354Z,29.60
2022-09-24T05:41:52.959Z,33.03
2022-09-24T05:42:59.818Z,27.42
2022-09-24T05:44:02.600Z,26.58
2022-09-24T05:45:06.329Z,30.17
2022-09-24T05:46:08.955Z,30.75
2022-09-24T05:47:10.662Z,28.63
2022-09-24T05:48:13.574Z,34.00
2022-09-24T05:49:15.327Z,32.38
2022-09-24T05:50:17.979Z,34.33
2022-09-24T05:51:19.487Z,29.15
2022-09-24T05:52:22.054Z,27.73
2022-09-24T05:53:23.807Z,30.10
2022-09-24T05:54:27.626Z,29.90
2022-09-24T05:55:32.365Z,29.35
2022-09-24T05:56:35.326Z,27.25
2022-09-24T05:57:37.232Z,28.77
2022-09-24T05:58:39.766Z,29.05
2022-09-24T05:59:41.279Z,30.52
2022-09-24T06:00:45.408Z,31.33
2022-09-24T06:01:49.133Z,31.23
2022-09-24T06:02:50.824Z,29.30
2022-09-24T06:03:53.389Z,30.88
2022-09-24T06:04:54.903Z,31.63
2022-09-24T06:05:59.579Z,31.27
2022-09-24T06:07:01.368Z,32.78
2022-09-24T06:08:04.150Z,32.50
2022-09-24T06:09:05.878Z,31.77
2022-09-24T06:10:11.174Z,28.77
2022-09-24T06:11:13.817Z,30.00
2022-09-24T06:12:17.521Z,31.58
2022-09-24T06:13:20.779Z,30.73
2022-09-24T06:14:23.283Z,32.92
2022-09-24T06:15:26.463Z,33.42
2022-09-24T06:16:29.038Z,36.70
2022-09-24T06:17:32.359Z,33.45
2022-09-24T06:18:36.191Z,32.47
2022-09-24T06:19:37.700Z,36.13
2022-09-24T06:20:40.200Z,33.72
2022-09-24T06:21:41.784Z,31.58
2022-09-24T06:22:44.275Z,31.65
2022-09-24T06:23:46.800Z,32.83
2022-09-24T06:24:48.338Z,32.95
2022-09-24T06:25:52.173Z,33.00
2022-09-24T06:26:53.696Z,33.00
2022-09-24T06:28:00.506Z,32.08
2022-09-24T06:29:08.437Z,32.65
2022-09-24T06:30:11.744Z,35.33
2022-09-24T06:31:14.508Z,31.20
2022-09-24T06:32:16.098Z,30.58
2022-09-24T06:33:20.011Z,35.72
2022-09-24T06:34:22.536Z,36.25
2022-09-24T06:35:24.068Z,35.05
2022-09-24T06:36:26.616Z,33.75
2022-09-24T06:37:28.188Z,31.35
2022-09-24T06:38:31.173Z,29.13
2022-09-24T06:39:33.699Z,32.45
2022-09-24T06:40:37.363Z,28.83
2022-09-24T06:41:42.006Z,34.92
2022-09-24T06:42:43.985Z,36.45
2022-09-24T06:43:47.025Z,32.63
2022-09-24T06:44:48.625Z,31.23
2022-09-24T06:45:51.173Z,30.50
2022-09-24T06:46:52.803Z,31.88
2022-09-24T06:47:56.059Z,34.55
2022-09-24T06:48:58.550Z,38.15
2022-09-24T06:50:00.056Z,34.55
2022-09-24T06:51:07.153Z,34.80
2022-09-24T06:52:08.757Z,34.05
2022-09-24T06:53:12.912Z,31.15
2022-09-24T06:54:14.401Z,32.70
2022-09-24T06:55:17.465Z,40.15
2022-09-24T06:56:19.986Z,36.42
2022-09-24T06:57:28.045Z,31.77
2022-09-24T06:58:31.633Z,33.83
2022-09-24T06:59:33.167Z,31.08
2022-09-24T07:00:36.743Z,33.15
2022-09-24T07:01:38.504Z,33.63
2022-09-24T07:02:41.702Z,32.72
2022-09-24T07:03:44.249Z,33.00
2022-09-24T07:04:45.794Z,31.92
2022-09-24T07:05:49.082Z,31.88
2022-09-24T07:07:09.185Z,34.13
2022-09-24T07:08:12.061Z,30.60
2022-09-24T07:09:13.560Z,26.35
2022-09-24T07:10:17.166Z,32.40
2022-09-24T07:11:18.686Z,31.63
2022-09-24T07:12:21.374Z,29.27
2022-09-24T07:13:24.506Z,29.63
2022-09-24T07:14:27.182Z,30.70
2022-09-24T07:15:28.755Z,31.60
2022-09-24T07:16:31.496Z,31.30
2022-09-24T07:17:34.094Z,28.52
2022-09-24T07:18:37.550Z,31.65
2022-09-24T07:19:39.311Z,30.60
2022-09-24T07:20:41.999Z,32.95
2022-09-24T07:21:43.544Z,31.42
2022-09-24T07:22:46.243Z,30.25
2022-09-24T07:23:47.867Z,31.70
2022-09-24T07:24:50.699Z,34.33
2022-09-24T07:25:56.699Z,31.73
2022-09-24T07:26:58.282Z,30.25
2022-09-24T07:28:04.581Z,27.98
2022-09-24T07:29:07.495Z,36.28
2022-09-24T07:30:11.352Z,28.98
2022-09-24T07:31:12.913Z,30.95
2022-09-24T07:32:16.688Z,35.83
2022-09-24T07:33:18.246Z,28.10
2022-09-24T07:34:21.061Z,27.02
2022-09-24T07:35:23.266Z,31.50
2022-09-24T07:36:25.860Z,28.67
2022-09-24T07:37:27.523Z,28.05
2022-09-24T07:38:30.045Z,27.30
2022-09-24T07:39:32.880Z,29.05
2022-09-24T07:40:35.935Z,28.38
2022-09-24T07:41:42.161Z,32.05
2022-09-24T07:42:49.389Z,34.50
2022-09-24T07:43:51.995Z,28.98
2022-09-24T07:44:56.552Z,30.27
2022-09-24T07:45:58.329Z,27.70
2022-09-24T07:47:00.902Z,32.17
2022-09-24T07:48:04.658Z,26.08
2022-09-24T07:49:07.267Z,28.63
2022-09-24T07:50:09.596Z,30.20
2022-09-24T07:51:12.471Z,26.23
2022-09-24T07:52:14.076Z,27.27
2022-09-24T07:53:16.848Z,28.00
2022-09-24T07:54:18.558Z,26.92
2022-09-24T07:55:21.373Z,29.67
2022-09-24T07:56:23.507Z,26.23
2022-09-24T07:57:27.399Z,28.88
2022-09-24T07:58:29.917Z,30.98
2022-09-24T07:59:32.508Z,30.55
2022-09-24T08:00:36.440Z,32.45
2022-09-24T08:01:38.151Z,28.13
2022-09-24T08:02:40.768Z,30.73
2022-09-24T08:03:42.349Z,24.85
2022-09-24T08:04:45.040Z,27.98
2022-09-24T08:05:46.701Z,28.05
2022-09-24T08:06:49.412Z,28.05
2022-09-24T08:07:51.602Z,27.52
2022-09-24T08:08:55.914Z,28.55
2022-09-24T08:09:58.457Z,28.73
2022-09-24T08:11:03.966Z,30.63
2022-09-24T08:12:05.886Z,27.63
2022-09-24T08:13:08.708Z,26.90
2022-09-24T08:14:11.347Z,28.25
2022-09-24T08:15:12.901Z,25.88
2022-09-24T08:16:17.324Z,26.15
2022-09-24T08:17:18.902Z,25.45
2022-09-24T08:18:21.401Z,26.60
2022-09-24T08:19:22.923Z,30.13
2022-09-24T08:20:25.472Z,26.60
2022-09-24T08:21:28.399Z,23.80
2022-09-24T08:22:31.375Z,29.27
2022-09-24T08:23:33.548Z,27.15
2022-09-24T08:24:36.048Z,27.25
2022-09-24T08:25:37.597Z,29.77
2022-09-24T08:26:40.181Z,23.35
2022-09-24T08:27:41.714Z,27.75
2022-09-24T08:28:44.304Z,29.60
2022-09-24T08:29:45.975Z,29.55
2022-09-24T08:30:48.531Z,28.25
2022-09-24T08:31:51.412Z,27.55
2022-09-24T08:32:53.898Z,33.33
2022-09-24T08:33:55.429Z,24.90
2022-09-24T08:34:58.947Z,25.73
2022-09-24T08:36:01.277Z,26.45
2022-09-24T08:37:03.948Z,26.65
2022-09-24T08:38:05.923Z,25.40
2022-09-24T08:39:08.645Z,28.13
2022-09-24T08:40:16.086Z,26.95
2022-09-24T08:41:28.694Z,28.98
2022-09-24T08:42:36.261Z,27.48
2022-09-24T08:43:47.182Z,29.30
2022-09-24T08:45:08.003Z,28.08
2022-09-24T08:46:33.421Z,26.25
2022-09-24T08:47:38.464Z,26.17
2022-09-24T08:48:43.246Z,26.30
2022-09-24T08:49:47.197Z,32.17
2022-09-24T08:50:52.275Z,30.98
2022-09-24T08:51:59.390Z,29.23
2022-09-24T08:53:12.636Z,28.10
2022-09-24T08:54:14.774Z,26.38
2022-09-24T08:55:21.441Z,26.77
2022-09-24T08:56:27.198Z,28.52
2022-09-24T08:57:28.896Z,28.60
2022-09-24T08:58:43.513Z,26.63
2022-09-24T08:59:50.079Z,28.77
2022-09-24T09:00:55.573Z,25.17
2022-09-24T09:02:06.857Z,27.55
2022-09-24T09:03:15.655Z,29.30
2022-09-24T09:04:26.942Z,27.80
2022-09-24T09:05:47.242Z,26.05
2022-09-24T09:07:04.618Z,28.35
2022-09-24T09:08:33.863Z,28.40
2022-09-24T09:09:42.450Z,25.85
2022-09-24T09:10:44.085Z,25.17
2022-09-24T09:11:49.237Z,25.75
2022-09-24T09:12:55.453Z,26.92
2022-09-24T09:14:00.405Z,29.45
2022-09-24T09:15:04.981Z,24.50
2022-09-24T09:16:14.803Z,25.33
2022-09-24T09:17:33.675Z,24.95
2022-09-24T09:18:39.637Z,23.02
2022-09-24T09:19:43.635Z,26.30
2022-09-24T09:20:47.220Z,24.73
2022-09-24T09:21:53.679Z,30.70
2022-09-24T09:22:56.934Z,22.75
2022-09-24T09:24:00.863Z,25.63
2022-09-24T09:25:05.626Z,25.25
2022-09-24T09:26:10.360Z,23.45
2022-09-24T09:27:15.246Z,23.02
2022-09-24T09:28:17.505Z,22.02
2022-09-24T09:29:20.351Z,19.48
2022-09-24T09:30:22.116Z,22.25
2022-09-24T09:31:32.092Z,23.55
2022-09-24T09:32:41.196Z,19.40
2022-09-24T09:33:56.767Z,22.52
2022-09-24T09:35:03.917Z,21.15
2022-09-24T09:36:16.633Z,22.55
2022-09-24T09:37:28.543Z,20.92
2022-09-24T09:38:35.957Z,20.88
2022-09-24T09:39:44.282Z,22.92
2022-09-24T09:40:54.075Z,19.05
2022-09-24T09:42:01.532Z,24.30
2022-09-24T09:43:12.132Z,23.65
2022-09-24T09:44:16.181Z,22.85
2022-09-24T09:45:28.359Z,20.88
2022-09-24T09:46:33.250Z,23.30
2022-09-24T09:47:41.745Z,18.70
2022-09-24T09:48:47.964Z,20.05
2022-09-24T09:49:53.359Z,19.92
2022-09-24T09:51:00.285Z,19.75
2022-09-24T09:52:05.882Z,15.13
2022-09-24T09:53:19.442Z,22.65
2022-09-24T09:54:21.517Z,17.20
2022-09-24T09:55:26.645Z,17.75
2022-09-24T09:56:31.718Z,16.95
2022-09-24T09:57:35.441Z,17.17
2022-09-24T09:58:38.968Z,18.80
2022-09-24T09:59:40.585Z,17.88
2022-09-24T10:00:46.919Z,17.92
2022-09-24T10:01:50.340Z,20.23
2022-09-24T10:02:53.643Z,15.43
2022-09-24T10:04:03.121Z,20.00
2022-09-24T10:05:07.404Z,19.50
2022-09-24T10:06:09.004Z,18.20
2022-09-24T10:07:13.279Z,17.70
2022-09-24T10:08:22.109Z,20.75
2022-09-24T10:09:23.710Z,20.10
2022-09-24T10:10:27.708Z,19.30
2022-09-24T10:11:29.230Z,21.77
2022-09-24T10:12:32.018Z,18.30
2022-09-24T10:13:33.807Z,17.02
2022-09-24T10:14:36.620Z,17.85
2022-09-24T10:15:45.555Z,20.00
2022-09-24T10:16:51.189Z,22.98
2022-09-24T10:17:55.304Z,17.80
2022-09-24T10:18:58.201Z,20.27
2022-09-24T10:20:02.421Z,20.17
2022-09-24T10:21:08.335Z,19.70
2022-09-24T10:22:12.620Z,17.92
2022-09-24T10:23:19.300Z,18.17
2022-09-24T10:24:26.298Z,18.85
2022-09-24T10:25:30.062Z,16.42
2022-09-24T10:26:38.744Z,20.17
2022-09-24T10:27:45.006Z,18.70
2022-09-24T10:29:05.525Z,19.65
2022-09-24T10:30:32.443Z,18.77
2022-09-24T10:31:36.447Z,14.55
2022-09-24T10:32:39.972Z,19.00
2022-09-24T10:33:43.953Z,17.92
2022-09-24T10:34:56.501Z,15.57
2022-09-24T10:36:05.964Z,16.17
2022-09-24T10:37:14.881Z,15.73
2022-09-24T10:38:19.007Z,13.45
2022-09-24T10:39:21.894Z,15.77
2022-09-24T10:40:28.167Z,15.52
2022-09-24T10:41:31.926Z,13.93
2022-09-24T10:42:33.546Z,12.88
2022-09-24T10:43:36.250Z,14.10
2022-09-24T10:44:38.360Z,12.43
2022-09-24T10:45:57.132Z,11.73
2022-09-24T10:47:16.154Z,11.30
2022-09-24T10:48:24.401Z,11.63
2022-09-24T10:49:38.713Z,11.23
2022-09-24T10:50:45.275Z,12.00
2022-09-24T10:51:51.685Z,13.10
2022-09-24T10:52:55.453Z,13.52
2022-09-24T10:54:07.065Z,12.20
2022-09-24T10:55:19.116Z,13.00
2022-09-24T10:56:27.267Z,11.90
2022-09-24T10:57:32.726Z,12.10
2022-09-24T10:58:43.141Z,11.30
2022-09-24T10:59:52.637Z,11.55
2022-09-24T11:01:03.284Z,12.00
2022-09-24T11:02:28.848Z,13.27
2022-09-24T11:03:46.420Z,14.18
2022-09-24T11:04:51.892Z,10.43
2022-09-24T11:06:02.086Z,12.05
2022-09-24T11:07:39.972Z,10.25
2022-09-24T11:08:54.877Z,11.80
2022-09-24T11:09:59.807Z,11.73
2022-09-24T11:11:11.324Z,11.60
2022-09-24T11:12:20.407Z,9.82
2022-09-24T11:13:29.165Z,11.88
2022-09-24T11:14:41.006Z,10.50
2022-09-24T11:16:10.629Z,10.75
2022-09-24T11:17:29.987Z,11.50
2022-09-24T11:18:39.100Z,12.60
2022-09-24T11:19:53.785Z,13.32
2022-09-24T11:21:04.429Z,11.30
2022-09-24T11:22:13.235Z,12.95
2022-09-24T11:23:31.735Z,11.68
2022-09-24T11:24:53.449Z,11.10
2022-09-24T11:26:00.856Z,11.63
2022-09-24T11:27:14.378Z,10.50
2022-09-24T11:28:36.400Z,10.90
2022-09-24T11:29:47.258Z,10.98
2022-09-24T11:30:58.789Z,13.52
2022-09-24T11:32:08.480Z,11.40
2022-09-24T11:33:25.599Z,9.85
2022-09-24T11:34:43.097Z,12.20
2022-09-24T11:35:56.467Z,11.25
2022-09-24T11:37:12.585Z,11.25
2022-09-24T11:38:17.976Z,13.52
2022-09-24T11:39:31.205Z,9.60
2022-09-24T11:40:46.697Z,11.18
2022-09-24T11:41:57.578Z,10.98
2022-09-24T11:43:12.452Z,12.00
2022-09-24T11:44:41.146Z,10.27
2022-09-24T11:45:51.076Z,11.80
2022-09-24T11:47:04.325Z,10.60
2022-09-24T11:48:21.060Z,14.55
2022-09-24T11:49:32.809Z,10.35
2022-09-24T11:50:47.391Z,10.00
2022-09-24T11:51:56.936Z,9.52
2022-09-24T11:53:03.187Z,12.65
2022-09-24T11:54:10.068Z,11.75
2022-09-24T11:55:16.034Z,9.95
2022-09-24T11:56:21.932Z,11.20
2022-09-24T11:57:28.284Z,12.57
2022-09-24T11:58:33.151Z,12.27
2022-09-24T11:59:38.527Z,10.43
2022-09-24T12:00:43.975Z,9.38
2022-09-24T12:01:49.509Z,10.40
2022-09-24T12:02:53.644Z,10.05
2022-09-24T12:03:58.677Z,10.45
2022-09-24T12:05:05.468Z,8.68
2022-09-24T12:06:12.201Z,13.07
2022-09-24T12:07:15.403Z,9.55
2022-09-24T12:08:21.975Z,9.68
2022-09-24T12:09:27.833Z,10.30
2022-09-24T12:10:34.977Z,10.30
2022-09-24T12:11:39.699Z,8.77
2022-09-24T12:12:43.947Z,9.20
2022-09-24T12:13:49.317Z,10.35
2022-09-24T12:14:54.653Z,8.63
2022-09-24T12:15:58.928Z,10.20
2022-09-24T12:17:05.693Z,10.68
2022-09-24T12:18:10.151Z,10.55
2022-09-24T12:19:18.916Z,11.60
2022-09-24T12:20:22.429Z,10.00
2022-09-24T12:21:28.065Z,9.32
2022-09-24T12:22:31.193Z,8.57
2022-09-24T12:23:39.062Z,9.85
2022-09-24T12:24:43.924Z,10.25
2022-09-24T12:25:47.484Z,8.93
2022-09-24T12:26:49.590Z,9.93
2022-09-24T12:27:52.319Z,9.30
2022-09-24T12:29:18.228Z,8.27
2022-09-24T12:30:46.813Z,10.10
2022-09-24T12:32:12.667Z,9.05
2022-09-24T12:33:19.613Z,10.98
2022-09-24T12:34:27.238Z,9.10
2022-09-24T12:35:39.959Z,11.20
2022-09-24T12:36:57.056Z,9.55
2022-09-24T12:38:03.073Z,9.18
2022-09-24T12:39:09.605Z,8.93
2022-09-24T12:40:26.524Z,12.00
2022-09-24T12:41:31.085Z,10.57
2022-09-24T12:42:36.938Z,9.88
2022-09-24T12:43:43.075Z,9.27
2022-09-24T12:44:47.677Z,11.85
2022-09-24T12:45:55.076Z,9.27
2022-09-24T12:46:59.163Z,10.70
2022-09-24T12:48:02.057Z,8.65
2022-09-24T12:49:04.764Z,9.70
2022-09-24T12:50:10.300Z,11.38
2022-09-24T12:51:14.385Z,12.25
2022-09-24T12:52:18.614Z,7.78
2022-09-24T12:53:24.697Z,10.57
2022-09-24T12:54:31.493Z,10.52
2022-09-24T12:55:35.716Z,10.40
2022-09-24T12:56:37.327Z,9.18
2022-09-24T12:57:42.771Z,8.20
2022-09-24T12:58:45.266Z,8.27
2022-09-24T12:59:50.078Z,8.88
2022-09-24T13:00:53.571Z,9.38
2022-09-24T13:01:56.449Z,10.68
2022-09-24T13:02:58.672Z,10.65
2022-09-24T13:04:25.316Z,10.80
2022-09-24T13:05:29.732Z,10.93
2022-09-24T13:06:34.580Z,9.13
2022-09-24T13:07:37.434Z,9.00
2022-09-24T13:08:41.170Z,9.20
2022-09-24T13:09:44.330Z,11.50
2022-09-24T13:10:54.802Z,8.68
2022-09-24T13:12:02.049Z,8.73
2022-09-24T13:13:21.431Z,10.50
2022-09-24T13:14:27.664Z,9.40
2022-09-24T13:15:34.315Z,9.52
2022-09-24T13:16:41.124Z,10.20
2022-09-24T13:17:42.663Z,8.95
2022-09-24T13:18:52.664Z,13.45
2022-09-24T13:19:59.734Z,10.90
2022-09-24T13:21:03.541Z,11.90
2022-09-24T13:22:06.529Z,10.02
2022-09-24T13:23:14.403Z,11.07
2022-09-24T13:24:31.121Z,9.65
2022-09-24T13:25:34.111Z,9.45
2022-09-24T13:26:36.705Z,10.45
2022-09-24T13:27:41.231Z,9.48
2022-09-24T13:28:56.417Z,10.55
2022-09-24T13:30:07.361Z,10.50
2022-09-24T13:31:14.846Z,9.63
2022-09-24T13:32:20.607Z,10.85
2022-09-24T13:33:24.867Z,9.98
2022-09-24T13:34:28.757Z,9.88
2022-09-24T13:35:33.690Z,9.63
2022-09-24T13:36:39.537Z,9.75
2022-09-24T13:37:43.601Z,10.40
2022-09-24T13:38:50.092Z,8.43
2022-09-24T13:39:56.913Z,11.02
2022-09-24T13:41:04.508Z,12.18
2022-09-24T13:42:09.592Z,9.23
2022-09-24T13:43:14.751Z,9.68
2022-09-24T13:44:21.476Z,8.40
2022-09-24T13:45:24.204Z,7.68
2022-09-24T13:46:27.583Z,10.50
2022-09-24T13:47:31.741Z,10.27
2022-09-24T13:48:37.615Z,9.13
2022-09-24T13:49:41.565Z,8.63
2022-09-24T13:50:47.567Z,9.75
2022-09-24T13:51:58.814Z,8.57
2022-09-24T13:53:06.345Z,9.63
2022-09-24T13:54:13.184Z,8.48
2022-09-24T13:55:19.007Z,8.77
2022-09-24T13:56:22.648Z,8.30
2022-09-24T13:57:27.023Z,10.48
2022-09-24T13:58:29.698Z,9.75
2022-09-24T13:59:32.272Z,8.88
2022-09-24T14:00:38.365Z,10.02
2022-09-24T14:01:42.040Z,9.15
2022-09-24T14:02:46.217Z,7.97
2022-09-24T14:03:59.956Z,8.98
2022-09-24T14:05:01.876Z,9.48